createdAt,value
2022-09-26T00:00:46.295Z,1.97
2022-09-26T00:05:48.393Z,1.90
2022-09-26T00:11:00.567Z,1.40
2022-09-26T00:16:03.066Z,1.60
2022-09-26T00:21:11.992Z,1.90
2022-09-26T00:26:15.766Z,1.80
2022-09-26T00:31:22.058Z,1.45
2022-09-26T00:36:37.089Z,1.80
2022-09-26T00:41:39.925Z,2.25
2022-09-26T00:46:47.971Z,2.00
2022-09-26T00:51:59.909Z,2.43
2022-09-26T00:57:10.812Z,2.75
2022-09-26T01:02:13.261Z,3.77
2022-09-26T01:07:19.772Z,3.12
2022-09-26T01:12:22.494Z,3.33
2022-09-26T01:17:26.220Z,3.05
2022-09-26T01:22:43.248Z,3.07
2022-09-26T01:28:03.546Z,2.77
2022-09-26T01:33:35.208Z,2.27
2022-09-26T01:38:59.121Z,2.77
2022-09-26T01:44:29.709Z,2.00
2022-09-26T01:49:37.587Z,1.90
2022-09-26T01:54:49.312Z,2.13
2022-09-26T02:00:01.406Z,2.73
2022-09-26T02:05:09.021Z,4.00
2022-09-26T02:10:17.529Z,2.67
2022-09-26T02:15:21.350Z,2.10
2022-09-26T02:20:32.173Z,1.70
2022-09-26T02:25:34.446Z,2.00
2022-09-26T02:30:40.097Z,1.80
2022-09-26T02:35:55.539Z,1.70
2022-09-26T02:41:22.714Z,2.53
2022-09-26T02:47:01.667Z,2.05
2022-09-26T02:52:35.935Z,2.00
2022-09-26T03:03:13.696Z,2.97
2022-09-26T03:08:18.228Z,2.35
2022-09-26T03:13:21.536Z,2.35
2022-09-26T03:18:31.712Z,2.50
2022-09-26T03:23:34.217Z,2.60
2022-09-26T03:28:38.238Z,2.75
2022-09-26T03:33:40.897Z,3.40
2022-09-26T03:38:43.175Z,2.22
2022-09-26T03:43:46.440Z,2.10
2022-09-26T03:48:49.809Z,2.20
2022-09-26T03:58:55.547Z,2.60
2022-09-26T04:03:58.021Z,2.30
2022-09-26T04:09:00.826Z,2.22
2022-09-26T04:14:04.007Z,2.37
2022-09-26T04:24:15.529Z,2.85
2022-09-26T04:29:17.739Z,2.27
2022-09-26T04:34:27.530Z,2.80
2022-09-26T04:39:30.072Z,2.77
2022-09-26T04:44:32.776Z,2.97
2022-09-26T04:49:34.774Z,3.45
2022-09-26T04:54:37.366Z,2.35
2022-09-26T04:59:39.522Z,2.72
2022-09-26T05:09:44.964Z,2.35
2022-09-26T05:14:47.492Z,2.80
2022-09-26T05:19:49.802Z,2.70
2022-09-26T05:30:13.381Z,1.65
2022-09-26T05:35:15.652Z,2.20
2022-09-26T05:40:37.224Z,2.45
2022-09-26T05:45:40.289Z,2.10
2022-09-26T05:50:46.262Z,2.90
2022-09-26T05:55:51.019Z,2.40
2022-09-26T06:01:00.227Z,1.50
2022-09-26T06:06:06.934Z,2.15
2022-09-26T06:11:12.933Z,2.20
2022-09-26T06:16:20.433Z,2.05
2022-09-26T06:21:23.524Z,1.63
2022-09-26T06:26:28.714Z,1.90
2022-09-26T06:31:31.481Z,2.00
2022-09-26T06:36:35.906Z,1.83
2022-09-26T06:41:37.975Z,1.80
2022-09-26T06:46:43.664Z,1.73
2022-09-26T06:56:49.260Z,1.77
2022-09-26T07:01:53.060Z,1.60
2022-09-26T07:06:59.868Z,2.67
2022-09-26T07:12:17.951Z,1.20
2022-09-26T07:17:20.706Z,1.50
2022-09-26T07:22:23.866Z,1.90
2022-09-26T07:27:26.574Z,1.67
2022-09-26T07:32:31.119Z,1.17
2022-09-26T07:37:33.917Z,1.42
2022-09-26T07:47:59.154Z,1.30
2022-09-26T07:53:04.135Z,1.00
2022-09-26T07:58:12.365Z,1.42
2022-09-26T08:03:15.041Z,1.45
2022-09-26T08:08:17.594Z,1.42
2022-09-26T08:13:22.197Z,1.62
2022-09-26T08:18:24.598Z,1.37
2022-09-26T08:23:26.608Z,1.40
2022-09-26T08:28:31.242Z,1.45
2022-09-26T08:38:38.805Z,1.45
2022-09-26T08:43:44.549Z,1.70
2022-09-26T08:48:51.901Z,1.60
2022-09-26T08:54:02.610Z,1.65
2022-09-26T08:59:11.203Z,1.30
2022-09-26T09:04:24.339Z,1.67
2022-09-26T09:09:26.851Z,0.70
2022-09-26T09:15:13.829Z,0.75
2022-09-26T09:20:45.436Z,0.85
2022-09-26T09:32:00.007Z,1.20
2022-09-26T09:37:10.646Z,0.65
2022-09-26T09:42:22.138Z,1.40
2022-09-26T09:47:28.613Z,0.70
2022-09-26T09:52:52.676Z,0.80
2022-09-26T09:58:16.644Z,0.70
2022-09-26T10:03:26.637Z,0.68
2022-09-26T10:08:31.272Z,1.00
2022-09-26T10:13:42.486Z,0.52
2022-09-26T10:19:09.877Z,0.98
2022-09-26T10:24:34.234Z,0.80
2022-09-26T10:29:42.490Z,1.27
2022-09-26T10:35:24.052Z,0.90
2022-09-26T10:40:45.128Z,1.55
2022-09-26T10:45:54.795Z,1.40
2022-09-26T10:51:02.823Z,1.00
2022-09-26T10:56:13.673Z,0.93
2022-09-26T11:01:30.027Z,0.70
2022-09-26T11:06:34.976Z,0.93
2022-09-26T11:11:39.484Z,1.33
2022-09-26T11:16:44.738Z,1.08
2022-09-26T11:22:08.061Z,1.37
2022-09-26T11:38:39.668Z,0.93
2022-09-26T11:44:09.172Z,0.98
2022-09-26T11:49:56.963Z,0.88
2022-09-26T11:55:37.065Z,1.87
2022-09-26T12:00:44.574Z,0.93
2022-09-26T12:06:07.524Z,0.62
2022-09-26T12:11:34.647Z,1.50
2022-09-26T12:16:46.617Z,0.88
2022-09-26T12:22:16.688Z,1.08
2022-09-26T12:27:25.597Z,1.52
2022-09-26T12:32:48.384Z,0.75
2022-09-26T12:37:58.329Z,0.50
2022-09-26T12:43:31.310Z,0.65
2022-09-26T12:49:04.347Z,0.50
2022-09-26T12:54:25.147Z,0.77
2022-09-26T12:59:34.306Z,0.95
2022-09-26T13:04:48.794Z,0.40
2022-09-26T13:10:28.591Z,0.80
2022-09-26T13:16:27.561Z,1.02
2022-09-26T13:22:05.058Z,0.90
2022-09-26T13:27:20.241Z,1.02
2022-09-26T13:32:35.662Z,0.77
2022-09-26T13:37:54.679Z,0.93
2022-09-26T13:43:25.487Z,0.68
2022-09-26T13:49:00.818Z,0.45
2022-09-26T13:54:10.407Z,0.43
2022-09-26T13:59:12.449Z,0.90
2022-09-26T14:04:32.762Z,0.32
2022-09-26T14:09:52.289Z,0.60
2022-09-26T14:15:39.689Z,0.95
2022-09-26T14:21:09.510Z,0.60
2022-09-26T14:26:15.755Z,1.30
2022-09-26T14:31:36.805Z,1.40
2022-09-26T14:36:39.310Z,0.60
2022-09-26T14:41:41.901Z,1.00
2022-09-26T14:46:44.729Z,1.40
2022-09-26T14:51:50.405Z,1.45
2022-09-26T14:57:05.114Z,1.75
2022-09-26T15:02:34.199Z,1.08
2022-09-26T15:07:52.136Z,1.80
2022-09-26T15:13:17.095Z,0.60
2022-09-26T15:18:28.155Z,0.60
2022-09-26T15:23:44.281Z,0.90
2022-09-26T15:28:48.971Z,0.90
2022-09-26T15:33:55.699Z,1.20
2022-09-26T15:38:58.613Z,0.65
2022-09-26T15:44:03.310Z,1.50
2022-09-26T15:49:14.358Z,1.23
2022-09-26T15:54:23.020Z,1.62
2022-09-26T15:59:41.176Z,1.15
2022-09-26T16:04:43.768Z,0.70
2022-09-26T16:09:48.334Z,0.90
2022-09-26T16:15:05.525Z,1.27
2022-09-26T16:20:13.607Z,1.62
2022-09-26T16:25:15.840Z,1.42
2022-09-26T16:30:23.445Z,2.50
2022-09-26T16:35:29.605Z,2.72
2022-09-26T16:40:34.820Z,2.80
2022-09-26T16:45:44.992Z,1.95
2022-09-26T16:50:47.180Z,1.92
2022-09-26T16:55:50.056Z,1.30
2022-09-26T17:01:10.737Z,1.27
2022-09-26T17:06:12.980Z,1.42
2022-09-26T17:11:16.113Z,1.20
2022-09-26T17:16:18.416Z,0.85
2022-09-26T17:21:20.609Z,1.40
2022-09-26T17:26:23.856Z,1.45
2022-09-26T17:31:26.948Z,1.30
2022-09-26T17:36:29.758Z,1.65
2022-09-26T17:41:34.272Z,1.40
2022-09-26T17:46:38.239Z,1.83
2022-09-26T17:51:42.145Z,1.27
2022-09-26T17:56:44.843Z,1.50
2022-09-26T18:01:48.603Z,2.03
2022-09-26T18:06:51.016Z,2.28
2022-09-26T18:12:00.847Z,1.70
2022-09-26T18:17:04.262Z,1.70
2022-09-26T18:22:10.530Z,1.60
2022-09-26T18:27:14.723Z,1.58
2022-09-26T18:32:31.619Z,0.90
2022-09-26T18:37:33.866Z,1.45
2022-09-26T18:42:36.518Z,1.30
2022-09-26T18:47:44.597Z,0.68
2022-09-26T18:52:47.632Z,0.90
2022-09-26T18:58:08.389Z,0.98
2022-09-26T19:03:10.882Z,0.62
2022-09-26T19:08:33.014Z,0.85
2022-09-26T19:13:35.177Z,0.70
2022-09-26T19:18:38.342Z,1.95
2022-09-26T19:23:40.548Z,0.82
2022-09-26T19:28:42.755Z,0.82
2022-09-26T19:33:47.555Z,1.02
2022-09-26T19:38:49.869Z,0.95
2022-09-26T19:43:52.272Z,1.10
2022-09-26T19:48:54.439Z,0.55
2022-09-26T19:53:57.181Z,0.68
2022-09-26T19:58:59.522Z,0.93
2022-09-26T20:04:01.843Z,0.22
2022-09-26T20:09:05.271Z,0.20
2022-09-26T20:14:25.520Z,0.45
2022-09-26T20:19:38.302Z,0.52
2022-09-26T20:24:43.172Z,0.95
2022-09-26T20:30:05.491Z,0.40
2022-09-26T20:35:11.091Z,0.52
2022-09-26T20:40:22.579Z,0.40
2022-09-26T20:45:30.861Z,0.28
2022-09-26T20:50:35.452Z,0.37
2022-09-26T20:55:41.830Z,0.50
2022-09-26T21:00:47.106Z,0.30
2022-09-26T21:05:49.298Z,0.37
2022-09-26T21:10:51.896Z,0.47
2022-09-26T21:15:54.118Z,0.28
2022-09-26T21:21:03.951Z,0.20
2022-09-26T21:26:24.019Z,0.28
2022-09-26T21:31:32.052Z,0.45
2022-09-26T21:36:39.529Z,0.47
2022-09-26T21:41:41.711Z,0.40
2022-09-26T21:46:44.544Z,0.70
2022-09-26T21:56:57.375Z,0.32
2022-09-26T22:01:59.500Z,0.52
2022-09-26T22:07:02.017Z,0.40
2022-09-26T22:12:04.198Z,0.50
2022-09-26T22:17:06.462Z,0.50
2022-09-26T22:22:09.391Z,0.45
2022-09-26T22:32:13.783Z,0.73
2022-09-26T22:37:16.098Z,0.50
2022-09-26T22:42:18.198Z,0.55
2022-09-26T22:47:20.397Z,0.35
2022-09-26T22:52:22.513Z,0.52
2022-09-26T22:57:24.667Z,0.57
2022-09-26T23:02:26.782Z,0.20
2022-09-26T23:07:30.095Z,0.47
2022-09-26T23:12:32.357Z,0.30
2022-09-26T23:17:34.885Z,0.45
2022-09-26T23:22:39.569Z,0.80
2022-09-26T23:27:41.664Z,0.53
2022-09-26T23:32:44.455Z,0.70
2022-09-26T23:37:46.654Z,0.37
2022-09-26T23:42:48.791Z,0.70
2022-09-26T23:47:50.949Z,0.73
2022-09-26T23:52:53.425Z,0.93
2022-09-26T23:57:59.198Z,1.00
